createdAt,value
2023-03-05T00:01:26.254Z,31.98
2023-03-05T00:03:55.894Z,33.38
2023-03-05T00:06:26.508Z,27.52
2023-03-05T00:08:55.026Z,30.70
2023-03-05T00:11:22.989Z,26.70
2023-03-05T00:13:53.516Z,25.67
2023-03-05T00:16:22.376Z,27.23
2023-03-05T00:18:49.909Z,25.55
2023-03-05T00:21:26.176Z,27.33
2023-03-05T00:23:54.355Z,26.20
2023-03-05T00:26:24.671Z,26.90
2023-03-05T00:28:52.567Z,27.52
2023-03-05T00:31:22.105Z,26.55
2023-03-05T00:33:54.062Z,27.25
2023-03-05T00:36:21.633Z,25.02
2023-03-05T00:38:49.976Z,26.83
2023-03-05T00:41:17.508Z,33.67
2023-03-05T00:43:44.890Z,26.05
2023-03-05T00:46:12.284Z,27.20
2023-03-05T00:48:39.611Z,26.45
2023-03-05T00:51:07.128Z,28.15
2023-03-05T00:53:34.651Z,33.15
2023-03-05T00:56:01.975Z,31.55
2023-03-05T00:58:29.864Z,27.05
2023-03-05T01:00:59.544Z,28.85
2023-03-05T01:03:27.327Z,29.02
2023-03-05T01:05:56.346Z,28.17
2023-03-05T01:08:24.363Z,29.92
2023-03-05T01:10:52.217Z,29.58
2023-03-05T01:13:20.164Z,28.30
2023-03-05T01:15:48.704Z,30.17
2023-03-05T01:18:17.280Z,27.92
2023-03-05T01:20:44.666Z,27.85
2023-03-05T01:23:12.274Z,31.17
2023-03-05T01:25:41.338Z,27.80
2023-03-05T01:28:09.250Z,28.48
2023-03-05T01:30:36.848Z,26.55
2023-03-05T01:33:04.196Z,26.23
2023-03-05T01:35:31.661Z,26.10
2023-03-05T01:37:58.979Z,25.40
2023-03-05T01:40:29.654Z,26.50
2023-03-05T01:43:01.090Z,28.00
2023-03-05T01:45:32.633Z,25.42
2023-03-05T01:48:00.713Z,26.08
2023-03-05T01:50:29.237Z,26.08
2023-03-05T01:53:03.928Z,27.88
2023-03-05T01:55:33.997Z,26.23
2023-03-05T01:58:12.835Z,27.95
2023-03-05T02:00:46.990Z,26.33
2023-03-05T02:03:14.484Z,24.80
2023-03-05T02:05:46.107Z,25.48
2023-03-05T02:08:16.600Z,26.65
2023-03-05T02:10:48.065Z,26.38
2023-03-05T02:13:21.374Z,26.05
2023-03-05T02:15:49.899Z,26.23
2023-03-05T02:18:18.798Z,31.83
2023-03-05T02:21:12.336Z,27.63
2023-03-05T02:23:40.197Z,29.83
2023-03-05T02:26:10.871Z,26.70
2023-03-05T02:28:47.392Z,31.75
2023-03-05T02:31:23.068Z,25.63
2023-03-05T02:33:51.307Z,24.88
2023-03-05T02:36:20.297Z,24.90
2023-03-05T02:38:47.848Z,23.35
2023-03-05T02:41:15.739Z,24.08
2023-03-05T02:43:43.493Z,22.40
2023-03-05T02:46:11.486Z,29.10
2023-03-05T02:48:39.978Z,27.70
2023-03-05T02:51:09.381Z,23.20
2023-03-05T02:53:36.676Z,26.90
2023-03-05T02:56:04.581Z,23.42
2023-03-05T02:58:34.524Z,27.27
2023-03-05T03:01:03.998Z,24.90
2023-03-05T03:03:31.491Z,23.40
2023-03-05T03:05:59.713Z,21.95
2023-03-05T03:08:27.187Z,22.08
2023-03-05T03:10:56.430Z,23.60
2023-03-05T03:13:25.197Z,21.25
2023-03-05T03:16:02.438Z,20.77
2023-03-05T03:18:29.801Z,21.90
2023-03-05T03:20:57.118Z,20.58
2023-03-05T03:23:24.433Z,23.02
2023-03-05T03:25:52.051Z,21.67
2023-03-05T03:28:19.348Z,21.15
2023-03-05T03:30:46.705Z,22.85
2023-03-05T03:33:14.090Z,22.02
2023-03-05T03:35:45.306Z,21.20
2023-03-05T03:38:13.871Z,21.42
2023-03-05T03:40:42.164Z,22.17
2023-03-05T03:43:09.476Z,20.58
2023-03-05T03:45:40.894Z,21.05
2023-03-05T03:48:08.181Z,25.23
2023-03-05T03:50:40.677Z,21.77
2023-03-05T03:53:09.093Z,20.48
2023-03-05T03:55:36.453Z,21.42
2023-03-05T03:58:04.161Z,21.40
2023-03-05T04:00:31.705Z,21.80
2023-03-05T04:02:59.021Z,21.70
2023-03-05T04:05:26.445Z,20.85
2023-03-05T04:07:53.782Z,21.52
2023-03-05T04:10:21.129Z,21.60
2023-03-05T04:12:48.402Z,23.05
2023-03-05T04:15:15.808Z,27.50
2023-03-05T04:17:43.217Z,21.85
2023-03-05T04:20:11.192Z,27.73
2023-03-05T04:22:38.468Z,27.05
2023-03-05T04:25:06.616Z,27.23
2023-03-05T04:27:36.100Z,26.65
2023-03-05T04:30:04.454Z,24.35
2023-03-05T04:32:32.348Z,24.00
2023-03-05T04:34:59.683Z,24.63
2023-03-05T04:37:27.343Z,21.58
2023-03-05T04:39:54.745Z,23.63
2023-03-05T04:42:22.067Z,27.50
2023-03-05T04:44:50.211Z,23.90
2023-03-05T04:47:18.923Z,24.08
2023-03-05T04:49:46.301Z,29.05
2023-03-05T04:52:14.331Z,23.50
2023-03-05T04:54:44.036Z,25.17
2023-03-05T04:57:11.430Z,25.77
2023-03-05T04:59:38.850Z,30.02
2023-03-05T05:02:06.470Z,24.55
2023-03-05T05:04:35.592Z,27.08
2023-03-05T05:07:05.754Z,25.67
2023-03-05T05:09:33.408Z,25.20
2023-03-05T05:12:00.659Z,25.65
2023-03-05T05:14:28.026Z,26.88
2023-03-05T05:16:55.307Z,25.77
2023-03-05T05:19:22.972Z,24.63
2023-03-05T05:21:50.276Z,24.60
2023-03-05T05:24:17.614Z,25.70
2023-03-05T05:26:44.925Z,25.42
2023-03-05T05:29:12.313Z,25.10
2023-03-05T05:31:39.956Z,24.88
2023-03-05T05:34:07.336Z,24.00
2023-03-05T05:36:34.630Z,23.83
2023-03-05T05:39:02.032Z,24.25
2023-03-05T05:41:29.524Z,23.48
2023-03-05T05:43:57.054Z,23.75
2023-03-05T05:46:25.813Z,23.30
2023-03-05T05:48:53.180Z,23.98
2023-03-05T05:51:22.171Z,22.35
2023-03-05T05:53:50.124Z,22.98
2023-03-05T05:56:20.436Z,21.20
2023-03-05T05:58:48.437Z,21.17
2023-03-05T06:01:28.436Z,21.88
2023-03-05T06:03:56.477Z,21.42
2023-03-05T06:06:26.283Z,21.67
2023-03-05T06:08:54.365Z,20.05
2023-03-05T06:11:22.363Z,21.42
2023-03-05T06:13:50.211Z,20.50
2023-03-05T06:16:24.008Z,21.65
2023-03-05T06:18:52.629Z,21.50
2023-03-05T06:21:21.209Z,20.80
2023-03-05T06:23:50.856Z,21.17
2023-03-05T06:26:20.929Z,21.63
2023-03-05T06:28:48.359Z,20.40
2023-03-05T06:31:26.099Z,21.85
2023-03-05T06:34:03.004Z,22.42
2023-03-05T06:36:30.576Z,21.70
2023-03-05T06:38:59.127Z,22.58
2023-03-05T06:41:29.704Z,21.88
2023-03-05T06:43:58.999Z,22.70
2023-03-05T06:46:29.697Z,21.58
2023-03-05T06:48:59.644Z,20.60
2023-03-05T06:51:35.449Z,20.50
2023-03-05T06:54:08.764Z,21.33
2023-03-05T06:56:37.361Z,21.92
2023-03-05T06:59:05.590Z,22.58
2023-03-05T07:01:33.429Z,23.15
2023-03-05T07:04:03.009Z,22.33
2023-03-05T07:06:35.659Z,23.17
2023-03-05T07:09:04.175Z,23.63
2023-03-05T07:11:31.660Z,24.30
2023-03-05T07:13:59.953Z,24.40
2023-03-05T07:16:30.462Z,25.63
2023-03-05T07:18:59.465Z,26.08
2023-03-05T07:21:28.767Z,25.42
2023-03-05T07:23:59.748Z,24.70
2023-03-05T07:26:27.738Z,25.85
2023-03-05T07:28:59.508Z,25.08
2023-03-05T07:31:30.874Z,25.00
2023-03-05T07:34:00.471Z,23.77
2023-03-05T07:36:28.006Z,24.83
2023-03-05T07:38:55.417Z,26.50
2023-03-05T07:41:23.783Z,24.92
2023-03-05T07:43:53.180Z,26.35
2023-03-05T07:46:23.761Z,26.30
2023-03-05T07:48:51.321Z,26.65
2023-03-05T07:51:20.208Z,25.90
2023-03-05T07:53:49.602Z,27.40
2023-03-05T07:56:24.774Z,27.17
2023-03-05T07:58:55.072Z,27.17
2023-03-05T08:01:22.620Z,26.88
2023-03-05T08:03:50.115Z,27.00
2023-03-05T08:06:17.690Z,25.63
2023-03-05T08:08:45.030Z,25.58
2023-03-05T08:11:15.654Z,26.38
2023-03-05T08:13:44.579Z,26.45
2023-03-05T08:16:17.647Z,26.13
2023-03-05T08:18:45.617Z,26.73
2023-03-05T08:21:33.846Z,26.20
2023-03-05T08:24:06.883Z,26.52
2023-03-05T08:26:38.434Z,27.77
2023-03-05T08:29:07.477Z,29.35
2023-03-05T08:31:34.966Z,29.10
2023-03-05T08:34:03.830Z,29.42
2023-03-05T08:36:31.601Z,28.73
2023-03-05T08:38:59.717Z,27.35
2023-03-05T08:41:27.724Z,27.95
2023-03-05T08:43:55.387Z,27.85
2023-03-05T08:46:22.694Z,28.73
2023-03-05T08:48:50.192Z,27.83
2023-03-05T08:51:22.206Z,28.10
2023-03-05T08:53:49.646Z,28.77
2023-03-05T08:56:16.949Z,30.13
2023-03-05T08:58:46.088Z,27.98
2023-03-05T09:01:13.961Z,28.48
2023-03-05T09:03:44.186Z,30.92
2023-03-05T09:06:14.899Z,34.38
2023-03-05T09:08:42.324Z,36.08
2023-03-05T09:11:12.464Z,34.67
2023-03-05T09:13:40.139Z,33.95
2023-03-05T09:16:11.672Z,32.60
2023-03-05T09:18:40.221Z,31.83
2023-03-05T09:21:09.394Z,28.52
2023-03-05T09:23:37.845Z,28.95
2023-03-05T09:26:06.738Z,28.88
2023-03-05T09:28:34.040Z,29.23
2023-03-05T09:31:06.381Z,29.20
2023-03-05T09:33:36.669Z,30.55
2023-03-05T09:36:05.763Z,29.77
2023-03-05T09:38:33.136Z,29.52
2023-03-05T09:41:16.976Z,31.80
2023-03-05T09:43:56.733Z,33.17
2023-03-05T09:46:44.991Z,28.55
2023-03-05T09:49:38.236Z,28.85
2023-03-05T09:52:22.758Z,28.27
2023-03-05T09:54:55.361Z,28.73
2023-03-05T09:57:31.049Z,30.73
2023-03-05T10:00:07.830Z,28.75
2023-03-05T10:02:50.446Z,29.55
2023-03-05T10:05:17.695Z,28.52
2023-03-05T10:07:55.592Z,29.60
2023-03-05T10:10:44.577Z,30.98
2023-03-05T10:13:26.799Z,29.88
2023-03-05T10:16:16.774Z,29.40
2023-03-05T10:18:56.969Z,30.50
2023-03-05T10:21:46.407Z,28.77
2023-03-05T10:24:37.200Z,27.67
2023-03-05T10:27:09.165Z,27.83
2023-03-05T10:30:01.489Z,26.63
2023-03-05T10:35:11.147Z,30.65
2023-03-05T10:37:54.943Z,34.38
2023-03-05T10:40:32.555Z,27.65
2023-03-05T10:43:57.201Z,28.17
2023-03-05T10:46:35.446Z,27.50
2023-03-05T10:49:23.006Z,27.98
2023-03-05T10:52:04.087Z,27.48
2023-03-05T10:54:33.727Z,29.17
2023-03-05T10:57:05.021Z,28.15
2023-03-05T10:59:32.633Z,29.35
2023-03-05T11:02:06.236Z,29.27
2023-03-05T11:04:39.074Z,31.52
2023-03-05T11:07:13.458Z,30.85
2023-03-05T11:09:42.225Z,30.73
2023-03-05T11:12:19.453Z,31.55
2023-03-05T11:15:04.752Z,30.05
2023-03-05T11:18:07.646Z,28.67
2023-03-05T11:20:36.524Z,28.00
2023-03-05T11:23:08.927Z,29.25
2023-03-05T11:25:59.119Z,28.23
2023-03-05T11:28:39.893Z,26.40
2023-03-05T11:31:16.332Z,28.48
2023-03-05T11:34:04.559Z,27.27
2023-03-05T11:36:37.221Z,28.77
2023-03-05T11:39:07.603Z,26.98
2023-03-05T11:41:43.153Z,27.02
2023-03-05T11:44:17.620Z,26.45
2023-03-05T11:46:48.661Z,25.45
2023-03-05T11:49:28.705Z,25.25
2023-03-05T11:52:31.111Z,25.90
2023-03-05T11:55:04.505Z,27.77
2023-03-05T11:57:41.693Z,28.45
2023-03-05T12:00:15.757Z,29.98
2023-03-05T12:02:43.823Z,30.52
2023-03-05T12:05:15.845Z,28.13
2023-03-05T12:10:20.345Z,24.80
2023-03-05T12:13:13.511Z,26.02
2023-03-05T12:16:05.658Z,27.00
2023-03-05T12:18:35.828Z,26.42
2023-03-05T12:21:14.525Z,26.55
2023-03-05T12:23:54.336Z,25.57
2023-03-05T12:27:05.971Z,24.25
2023-03-05T12:29:33.350Z,25.20
2023-03-05T12:32:01.972Z,26.08
2023-03-05T12:34:41.825Z,28.45
2023-03-05T12:37:31.925Z,29.67
2023-03-05T12:40:00.819Z,29.20
2023-03-05T12:42:28.076Z,25.38
2023-03-05T12:45:14.508Z,25.27
2023-03-05T12:47:46.397Z,28.45
2023-03-05T12:50:39.950Z,25.33
2023-03-05T12:53:07.267Z,25.52
2023-03-05T12:55:35.413Z,25.35
2023-03-05T12:58:39.833Z,23.95
2023-03-05T13:01:31.634Z,31.33
2023-03-05T13:04:10.649Z,28.15
2023-03-05T13:06:39.357Z,26.52
2023-03-05T13:09:18.534Z,27.55
2023-03-05T13:11:50.002Z,28.13
2023-03-05T13:14:26.413Z,27.02
2023-03-05T13:16:53.751Z,27.65
2023-03-05T13:19:21.529Z,30.85
2023-03-05T13:22:09.712Z,26.98
2023-03-05T13:24:37.147Z,30.05
2023-03-05T13:27:20.146Z,30.55
2023-03-05T13:29:52.616Z,25.77
2023-03-05T13:32:30.007Z,25.27
2023-03-05T13:35:00.337Z,26.23
2023-03-05T13:37:33.039Z,26.48
2023-03-05T13:40:26.094Z,25.63
2023-03-05T13:42:53.515Z,27.77
2023-03-05T13:45:22.619Z,31.60
2023-03-05T13:48:19.069Z,27.63
2023-03-05T13:50:46.442Z,26.88
2023-03-05T13:53:24.750Z,25.92
2023-03-05T13:55:56.848Z,28.25
2023-03-05T14:01:26.868Z,27.38
2023-03-05T14:04:02.140Z,26.02
2023-03-05T14:06:31.062Z,26.65
2023-03-05T14:09:04.618Z,25.98
2023-03-05T14:11:32.176Z,27.05
2023-03-05T14:16:55.545Z,25.92
2023-03-05T14:19:40.813Z,26.88
2023-03-05T14:22:36.378Z,28.30
2023-03-05T14:25:05.994Z,31.65
2023-03-05T14:27:37.272Z,32.15
2023-03-05T14:30:05.834Z,32.55
2023-03-05T14:32:36.032Z,32.42
2023-03-05T14:35:05.871Z,27.70
2023-03-05T14:37:42.128Z,27.80
2023-03-05T14:40:12.555Z,27.05
2023-03-05T14:42:56.010Z,31.80
2023-03-05T14:45:26.428Z,27.90
2023-03-05T14:47:55.792Z,27.52
2023-03-05T14:50:26.759Z,31.52
2023-03-05T14:53:00.292Z,32.25
2023-03-05T14:55:31.850Z,32.03
2023-03-05T14:58:21.888Z,32.30
2023-03-05T15:00:51.066Z,33.25
2023-03-05T15:03:20.377Z,32.83
2023-03-05T15:05:51.810Z,32.45
2023-03-05T15:08:25.091Z,30.90
2023-03-05T15:10:53.226Z,30.73
2023-03-05T15:13:20.750Z,32.90
2023-03-05T15:15:49.817Z,31.52
2023-03-05T15:18:22.715Z,31.90
2023-03-05T15:20:53.021Z,32.63
2023-03-05T15:23:20.533Z,32.55
2023-03-05T15:25:47.887Z,33.13
2023-03-05T15:28:18.385Z,28.00
2023-03-05T15:30:47.330Z,33.03
2023-03-05T15:33:17.075Z,29.65
2023-03-05T15:35:45.012Z,34.10
2023-03-05T15:38:12.522Z,34.85
2023-03-05T15:40:39.826Z,30.70
2023-03-05T15:43:07.143Z,34.10
2023-03-05T15:45:34.417Z,31.02
2023-03-05T15:48:01.927Z,27.05
2023-03-05T15:50:29.262Z,27.92
2023-03-05T15:52:57.943Z,34.72
2023-03-05T15:55:25.399Z,36.35
2023-03-05T15:57:53.928Z,35.75
2023-03-05T16:00:29.285Z,30.40
2023-03-05T16:02:56.631Z,30.52
2023-03-05T16:05:24.208Z,37.75
2023-03-05T16:07:53.313Z,30.90
2023-03-05T16:10:25.261Z,36.25
2023-03-05T16:15:22.795Z,37.13
2023-03-05T16:17:54.776Z,36.70
2023-03-05T16:20:22.668Z,35.88
2023-03-05T16:22:50.945Z,30.73
2023-03-05T16:25:18.334Z,30.85
2023-03-05T16:27:45.779Z,32.45
2023-03-05T16:30:15.365Z,30.85
2023-03-05T16:32:43.538Z,33.92
2023-03-05T16:35:12.453Z,30.73
2023-03-05T16:37:44.040Z,30.05
2023-03-05T16:40:12.418Z,29.35
2023-03-05T16:42:39.894Z,31.33
2023-03-05T16:45:08.814Z,31.60
2023-03-05T16:47:36.184Z,32.17
2023-03-05T16:50:04.077Z,31.30
2023-03-05T16:52:31.765Z,29.98
2023-03-05T16:54:59.207Z,30.75
2023-03-05T16:57:28.882Z,31.33
2023-03-05T16:59:57.156Z,30.42
2023-03-05T17:02:24.524Z,30.48
2023-03-05T17:04:51.845Z,39.00
2023-03-05T17:07:19.300Z,31.50
2023-03-05T17:09:48.020Z,30.60
2023-03-05T17:12:15.406Z,30.02
2023-03-05T17:14:42.889Z,29.48
2023-03-05T17:17:10.758Z,30.48
2023-03-05T17:19:38.200Z,29.45
2023-03-05T17:22:05.891Z,31.05
2023-03-05T17:24:33.348Z,28.02
2023-03-05T17:27:01.059Z,28.58
2023-03-05T17:29:29.508Z,30.02
2023-03-05T17:31:56.945Z,28.55
2023-03-05T17:34:35.727Z,29.15
2023-03-05T17:37:05.183Z,29.55
2023-03-05T17:39:32.995Z,28.80
2023-03-05T17:42:01.258Z,28.13
2023-03-05T17:44:29.002Z,29.88
2023-03-05T17:46:56.431Z,30.92
2023-03-05T17:49:23.790Z,28.00
2023-03-05T17:51:51.175Z,30.13
2023-03-05T17:54:18.838Z,29.35
2023-03-05T17:56:48.060Z,29.27
2023-03-05T17:59:16.541Z,30.67
2023-03-05T18:01:43.949Z,29.42
2023-03-05T18:04:11.467Z,32.00
2023-03-05T18:06:40.099Z,31.35
2023-03-05T18:09:07.786Z,31.80
2023-03-05T18:11:39.290Z,30.35
2023-03-05T18:14:10.909Z,30.85
2023-03-05T18:16:39.246Z,29.75
2023-03-05T18:19:08.096Z,29.75
2023-03-05T18:21:35.420Z,30.17
2023-03-05T18:24:03.748Z,32.97
2023-03-05T18:26:31.336Z,32.78
2023-03-05T18:28:58.737Z,32.67
2023-03-05T18:31:27.302Z,32.60
2023-03-05T18:33:54.704Z,33.40
2023-03-05T18:36:22.251Z,32.78
2023-03-05T18:38:49.524Z,33.90
2023-03-05T18:41:21.071Z,33.58
2023-03-05T18:43:48.712Z,33.67
2023-03-05T18:46:16.991Z,32.58
2023-03-05T18:48:44.333Z,32.42
2023-03-05T18:51:19.153Z,33.88
2023-03-05T18:53:46.500Z,34.33
2023-03-05T18:56:14.163Z,32.97
2023-03-05T18:58:41.531Z,34.30
2023-03-05T19:01:11.820Z,35.50
2023-03-05T19:03:39.289Z,38.80
2023-03-05T19:06:07.715Z,35.90
2023-03-05T19:08:35.846Z,33.97
2023-03-05T19:11:03.517Z,36.22
2023-03-05T19:13:40.399Z,34.78
2023-03-05T19:16:17.755Z,34.88
2023-03-05T19:19:20.388Z,36.72
2023-03-05T19:21:59.718Z,32.33
2023-03-05T19:27:01.069Z,33.90
2023-03-05T19:29:33.075Z,34.55
2023-03-05T19:34:27.733Z,34.13
2023-03-05T19:36:55.059Z,34.35
2023-03-05T19:39:22.368Z,34.05
2023-03-05T19:41:49.693Z,35.80
2023-03-05T19:44:19.328Z,33.55
2023-03-05T19:46:48.530Z,34.10
2023-03-05T19:49:18.242Z,31.30
2023-03-05T19:51:46.362Z,38.97
2023-03-05T19:54:17.871Z,29.38
2023-03-05T19:56:46.447Z,30.10
2023-03-05T19:59:17.570Z,29.98
2023-03-05T20:01:45.895Z,29.55
2023-03-05T20:04:15.899Z,35.38
2023-03-05T20:06:43.391Z,36.92
2023-03-05T20:09:11.117Z,34.05
2023-03-05T20:11:39.043Z,29.40
2023-03-05T20:14:07.083Z,26.27
2023-03-05T20:16:36.381Z,26.95
2023-03-05T20:19:06.580Z,27.00
2023-03-05T20:21:40.160Z,26.17
2023-03-05T20:24:11.298Z,27.27
2023-03-05T20:26:40.517Z,25.90
2023-03-05T20:29:08.589Z,27.15
2023-03-05T20:31:37.173Z,28.33
2023-03-05T20:34:06.568Z,26.15
2023-03-05T20:36:34.816Z,25.40
2023-03-05T20:39:03.325Z,24.63
2023-03-05T20:41:32.025Z,24.60
2023-03-05T20:43:59.437Z,29.52
2023-03-05T20:46:30.068Z,29.92
2023-03-05T20:49:02.531Z,29.75
2023-03-05T20:51:36.010Z,29.20
2023-03-05T20:54:07.223Z,29.50
2023-03-05T20:56:35.614Z,24.92
2023-03-05T20:59:07.529Z,24.30
2023-03-05T21:01:37.394Z,24.83
2023-03-05T21:04:04.938Z,26.20
2023-03-05T21:06:33.057Z,24.08
2023-03-05T21:09:00.848Z,23.17
2023-03-05T21:11:28.589Z,24.23
2023-03-05T21:14:14.189Z,23.58
2023-03-05T21:16:41.554Z,23.63
2023-03-05T21:19:08.970Z,24.05
2023-03-05T21:21:36.312Z,24.45
2023-03-05T21:24:03.750Z,23.70
2023-03-05T21:26:31.106Z,27.88
2023-03-05T21:28:58.375Z,28.00
2023-03-05T21:31:25.818Z,27.88
2023-03-05T21:33:54.226Z,25.65
2023-03-05T21:36:21.808Z,23.90
2023-03-05T21:38:49.566Z,22.63
2023-03-05T21:41:18.257Z,22.45
2023-03-05T21:43:45.692Z,22.70
2023-03-05T21:46:13.131Z,22.05
2023-03-05T21:48:40.589Z,22.35
2023-03-05T21:51:40.700Z,23.77
2023-03-05T21:54:19.831Z,24.10
2023-03-05T21:56:47.456Z,23.00
2023-03-05T21:59:14.794Z,22.63
2023-03-05T22:01:44.811Z,23.33
2023-03-05T22:04:12.230Z,22.80
2023-03-05T22:06:39.572Z,22.40
2023-03-05T22:09:06.849Z,23.05
2023-03-05T22:11:34.189Z,23.25
2023-03-05T22:14:01.540Z,22.83
2023-03-05T22:16:29.321Z,21.33
2023-03-05T22:18:56.721Z,22.13
2023-03-05T22:21:28.734Z,22.48
2023-03-05T22:26:35.422Z,21.35
2023-03-05T22:29:02.770Z,23.40
2023-03-05T22:31:30.540Z,26.33
2023-03-05T22:33:58.068Z,23.52
2023-03-05T22:36:25.561Z,23.90
2023-03-05T22:38:53.001Z,24.15
2023-03-05T22:41:21.424Z,23.92
2023-03-05T22:43:49.750Z,23.52
2023-03-05T22:46:26.149Z,24.48
2023-03-05T22:48:53.971Z,24.13
2023-03-05T22:51:21.484Z,29.25
2023-03-05T22:53:48.775Z,26.27
2023-03-05T22:56:19.459Z,26.08
2023-03-05T22:58:46.872Z,23.67
2023-03-05T23:01:22.489Z,24.02
2023-03-05T23:04:38.929Z,24.50
2023-03-05T23:07:09.577Z,23.00
2023-03-05T23:09:36.932Z,24.80
2023-03-05T23:12:04.607Z,24.55
2023-03-05T23:14:32.046Z,24.95
2023-03-05T23:16:59.553Z,28.60
2023-03-05T23:19:29.247Z,25.67
2023-03-05T23:21:56.632Z,26.20
2023-03-05T23:24:23.861Z,26.23
2023-03-05T23:26:51.174Z,26.10
2023-03-05T23:29:24.969Z,25.17
2023-03-05T23:32:04.432Z,29.35
2023-03-05T23:34:34.596Z,30.65
2023-03-05T23:37:02.121Z,25.00
2023-03-05T23:39:29.472Z,32.30
2023-03-05T23:41:56.789Z,25.55
2023-03-05T23:44:24.042Z,32.22
2023-03-05T23:46:51.396Z,27.38
2023-03-05T23:49:18.703Z,31.77
2023-03-05T23:51:46.057Z,29.77
2023-03-05T23:54:13.309Z,26.80
2023-03-05T23:56:43.460Z,28.40
2023-03-05T23:59:10.823Z,32.67
